Etusivu
METAR-TAF:

METAR-TAF

Lentoasemat :

Assuan, Egypti

Leveyspiiri: 23-58N, Pituuspiiri: 032-47E, korkeus merenpinnasta: 200 m

Tämänhetkinen sää

Tämä raportti tehtiin 1 tunti ja 34 minuuttia sitten, kello 09.00 UTC
Tuuli 6 kn idästä
Lämpötila 42°C
Kosteus 11%
Ilmanpaine 1007 hPa
Näkyvyys 10 km tai enemmän
ei pilviä alle 1500 m:ssä eikä cumulonimbus-pilviä

METAR: HESN 210900Z 10006KT CAVOK 42/06 Q1007 NOSIG

Aika: 12:34 (10:34 UTC)

Sääennuste

Tämä raportti tehtiin 5 tuntia ja 34 minuuttia sitten, kello 05.00 UTC
Ennuste voimassa 21. päivästä klo 06 UTC - 22. päivään klo 12 UTC
Tuuli 12 kn luoteesta
Näkyvyys 10 km tai enemmän
ei pilviä alle 1500 m:ssä eikä cumulonimbus-pilviä

TAF: HESN 210500Z 2106/2212 31012KT CAVOK

Säähavainnot ja -ennusteet yli 4000 lentoasemalta (METAR- ja TAF-raportit).

Käytössä olevat sääasemat on merkitty karttaan keltaisilla ja punaisilla pisteillä.

Aseta hiiri pisteen päälle nähdäksesi sääaseman nimen.

Klikkaa sitten nähdäksesi säähavainnot ja -ennusteet.

Kartan vaihtaminen: klikkaa mustalla rastilla varustettuja vihreitä pisteitä, niin voit zoomata sisään; viivalla varustettua vihreää pistettä, niin voit zoomata ulos tai vihreitä nuolia, niin pääset viereisille kartoille.


METAR-TAF: